createdAt,value
2018-07-05T00:00:46.440Z,1005.79
2018-07-05T00:01:46.428Z,1005.81
2018-07-05T00:02:51.219Z,1005.79
2018-07-05T00:03:46.440Z,1005.79
2018-07-05T00:04:46.398Z,1005.84
2018-07-05T00:05:46.385Z,1005.85
2018-07-05T00:06:46.418Z,1005.88
2018-07-05T00:07:46.367Z,1005.89
2018-07-05T00:08:46.354Z,1005.89
2018-07-05T00:09:46.371Z,1005.88
2018-07-05T00:10:46.335Z,1005.89
2018-07-05T00:11:46.332Z,1005.96
2018-07-05T00:12:46.315Z,1005.89
2018-07-05T00:13:46.405Z,1005.92
2018-07-05T00:14:46.297Z,1005.88
2018-07-05T00:15:46.315Z,1005.92
2018-07-05T00:16:46.276Z,1005.93
2018-07-05T00:17:46.277Z,1005.89
2018-07-05T00:18:46.256Z,1005.87
2018-07-05T00:19:46.579Z,1005.83
2018-07-05T00:20:46.289Z,1005.85
2018-07-05T00:21:46.259Z,1005.87
2018-07-05T00:22:46.213Z,1005.91
2018-07-05T00:23:46.199Z,1005.96
2018-07-05T00:24:46.193Z,1005.94
2018-07-05T00:25:46.184Z,1005.96
2018-07-05T00:26:46.173Z,1005.95
2018-07-05T00:27:46.291Z,1005.90
2018-07-05T00:28:46.156Z,1005.93
2018-07-05T00:29:46.146Z,1005.90
2018-07-05T00:30:46.132Z,1005.96
2018-07-05T00:31:46.125Z,1005.89
2018-07-05T00:32:46.115Z,1005.93
2018-07-05T00:33:46.118Z,1005.91
2018-07-05T00:34:46.127Z,1005.93
2018-07-05T00:35:46.082Z,1005.96
2018-07-05T00:36:46.069Z,1005.93
2018-07-05T00:37:46.060Z,1005.96
2018-07-05T00:38:46.052Z,1005.93
2018-07-05T00:39:46.060Z,1005.90
2018-07-05T00:40:46.031Z,1005.95
2018-07-05T00:41:46.054Z,1005.97
2018-07-05T00:42:46.010Z,1005.96
2018-07-05T00:43:45.997Z,1005.94
2018-07-05T00:44:45.989Z,1005.95
2018-07-05T00:45:46.011Z,1005.96
2018-07-05T00:46:45.969Z,1006.00
2018-07-05T00:47:45.953Z,1006.00
2018-07-05T00:48:45.986Z,1005.97
2018-07-05T00:49:45.940Z,1005.91
2018-07-05T00:50:45.927Z,1005.90
2018-07-05T00:51:45.945Z,1005.96
2018-07-05T00:52:45.904Z,1005.92
2018-07-05T00:53:45.891Z,1005.95
2018-07-05T00:54:45.881Z,1006.00
2018-07-05T00:55:45.908Z,1006.01
2018-07-05T00:56:45.886Z,1005.99
2018-07-05T00:57:45.868Z,1006.03
2018-07-05T00:58:45.953Z,1005.95
2018-07-05T00:59:45.829Z,1005.95
2018-07-05T01:00:46.143Z,1006.00
2018-07-05T01:01:45.806Z,1005.98
2018-07-05T01:02:45.953Z,1006.00
2018-07-05T01:03:50.612Z,1005.99
2018-07-05T01:04:45.774Z,1005.98
2018-07-05T01:05:45.763Z,1005.95
2018-07-05T01:06:45.755Z,1005.93
2018-07-05T01:07:45.744Z,1005.95
2018-07-05T01:08:45.733Z,1005.93
2018-07-05T01:09:45.780Z,1005.93
2018-07-05T01:10:45.713Z,1005.95
2018-07-05T01:11:45.704Z,1006.00
2018-07-05T01:12:45.695Z,1006.04
2018-07-05T01:13:45.680Z,1006.06
2018-07-05T01:14:45.672Z,1006.05
2018-07-05T01:15:45.693Z,1006.00
2018-07-05T01:16:45.690Z,1005.95
2018-07-05T01:17:45.644Z,1005.97
2018-07-05T01:18:45.628Z,1005.95
2018-07-05T01:19:45.625Z,1005.97
2018-07-05T01:20:45.607Z,1006.02
2018-07-05T01:21:45.631Z,1006.00
2018-07-05T01:22:45.585Z,1005.96
2018-07-05T01:23:45.613Z,1005.99
2018-07-05T01:24:45.564Z,1005.98
2018-07-05T01:25:45.557Z,1005.94
2018-07-05T01:26:45.544Z,1005.93
2018-07-05T01:27:45.559Z,1005.95
2018-07-05T01:28:45.526Z,1005.93
2018-07-05T01:29:45.512Z,1005.94
2018-07-05T01:30:45.551Z,1005.92
2018-07-05T01:31:45.492Z,1005.91
2018-07-05T01:32:45.481Z,1005.89
2018-07-05T01:33:45.506Z,1005.92
2018-07-05T01:34:45.463Z,1005.95
2018-07-05T01:35:45.454Z,1005.97
2018-07-05T01:36:45.440Z,1006.03
2018-07-05T01:37:45.464Z,1006.08
2018-07-05T01:38:45.422Z,1006.07
2018-07-05T01:39:45.447Z,1006.10
2018-07-05T01:40:45.402Z,1006.08
2018-07-05T01:41:45.391Z,1006.08
2018-07-05T01:42:45.383Z,1006.05
2018-07-05T01:43:45.371Z,1006.05
2018-07-05T01:44:45.398Z,1005.97
2018-07-05T01:45:45.382Z,1005.92
2018-07-05T01:46:45.337Z,1005.90
2018-07-05T01:47:45.328Z,1005.90
2018-07-05T01:48:45.319Z,1005.88
2018-07-05T01:49:45.305Z,1005.91
2018-07-05T01:50:45.300Z,1005.91
2018-07-05T01:51:45.354Z,1005.96
2018-07-05T01:52:45.278Z,1005.99
2018-07-05T01:53:45.263Z,1006.00
2018-07-05T01:54:45.256Z,1006.01
2018-07-05T01:55:45.248Z,1006.02
2018-07-05T01:56:45.233Z,1006.04
2018-07-05T01:57:45.241Z,1006.05
2018-07-05T01:58:45.245Z,1006.08
2018-07-05T01:59:45.202Z,1006.06
2018-07-05T02:00:45.302Z,1006.05
2018-07-05T02:01:45.181Z,1006.05
2018-07-05T02:02:45.167Z,1006.04
2018-07-05T02:03:45.272Z,1006.03
2018-07-05T02:04:45.148Z,1006.04
2018-07-05T02:05:49.977Z,1006.02
2018-07-05T02:06:45.124Z,1006.04
2018-07-05T02:07:45.117Z,1006.01
2018-07-05T02:08:45.107Z,1006.01
2018-07-05T02:09:45.126Z,1006.03
2018-07-05T02:10:45.082Z,1006.02
2018-07-05T02:11:45.070Z,1006.05
2018-07-05T02:12:45.102Z,1006.03
2018-07-05T02:13:45.052Z,1005.94
2018-07-05T02:14:45.045Z,1005.94
2018-07-05T02:15:45.052Z,1005.89
2018-07-05T02:16:45.018Z,1005.84
2018-07-05T02:17:45.010Z,1005.91
2018-07-05T02:18:44.998Z,1005.86
2018-07-05T02:19:45.023Z,1005.91
2018-07-05T02:20:44.974Z,1005.89
2018-07-05T02:21:44.985Z,1005.93
2018-07-05T02:22:44.958Z,1005.88
2018-07-05T02:23:44.942Z,1005.84
2018-07-05T02:24:44.931Z,1005.91
2018-07-05T02:25:44.928Z,1005.89
2018-07-05T02:26:44.982Z,1005.91
2018-07-05T02:27:44.902Z,1005.90
2018-07-05T02:28:44.889Z,1005.89
2018-07-05T02:29:44.880Z,1005.95
2018-07-05T02:30:44.869Z,1005.92
2018-07-05T02:31:44.860Z,1005.95
2018-07-05T02:32:44.868Z,1005.91
2018-07-05T02:33:44.871Z,1005.92
2018-07-05T02:34:44.824Z,1005.89
2018-07-05T02:35:44.816Z,1005.90
2018-07-05T02:36:44.805Z,1005.86
2018-07-05T02:37:44.796Z,1005.85
2018-07-05T02:38:44.820Z,1005.86
2018-07-05T02:39:44.776Z,1005.84
2018-07-05T02:40:44.799Z,1005.85
2018-07-05T02:41:44.751Z,1005.87
2018-07-05T02:42:44.742Z,1005.85
2018-07-05T02:43:44.731Z,1005.84
2018-07-05T02:44:44.739Z,1005.83
2018-07-05T02:45:44.703Z,1005.83
2018-07-05T02:46:44.698Z,1005.82
2018-07-05T02:47:44.723Z,1005.79
2018-07-05T02:48:44.674Z,1005.76
2018-07-05T02:49:44.664Z,1005.75
2018-07-05T02:50:44.675Z,1005.77
2018-07-05T02:51:44.642Z,1005.75
2018-07-05T02:52:44.632Z,1005.77
2018-07-05T02:53:44.622Z,1005.78
2018-07-05T02:54:44.653Z,1005.78
2018-07-05T02:55:44.598Z,1005.75
2018-07-05T02:56:44.624Z,1005.75
2018-07-05T02:57:44.581Z,1005.78
2018-07-05T02:58:44.569Z,1005.72
2018-07-05T02:59:44.555Z,1005.72
2018-07-05T03:00:44.546Z,1005.65
2018-07-05T03:01:44.663Z,1005.67
2018-07-05T03:02:44.551Z,1005.60
2018-07-05T03:03:44.515Z,1005.59
2018-07-05T03:04:44.501Z,1005.58
2018-07-05T03:05:44.490Z,1005.57
2018-07-05T03:06:49.280Z,1005.53
2018-07-05T03:07:44.473Z,1005.55
2018-07-05T03:08:44.544Z,1005.54
2018-07-05T03:09:44.453Z,1005.54
2018-07-05T03:10:44.440Z,1005.53
2018-07-05T03:11:44.427Z,1005.52
2018-07-05T03:12:44.418Z,1005.58
2018-07-05T03:13:44.441Z,1005.54
2018-07-05T03:14:44.396Z,1005.55
2018-07-05T03:15:44.419Z,1005.59
2018-07-05T03:16:44.371Z,1005.58
2018-07-05T03:17:44.360Z,1005.57
2018-07-05T03:18:44.353Z,1005.54
2018-07-05T03:19:44.378Z,1005.56
2018-07-05T03:20:44.334Z,1005.53
2018-07-05T03:21:44.318Z,1005.53
2018-07-05T03:22:44.351Z,1005.57
2018-07-05T03:23:44.301Z,1005.56
2018-07-05T03:24:44.288Z,1005.56
2018-07-05T03:25:44.311Z,1005.56
2018-07-05T03:26:44.264Z,1005.55
2018-07-05T03:27:44.254Z,1005.53
2018-07-05T03:28:44.249Z,1005.52
2018-07-05T03:29:44.268Z,1005.52
2018-07-05T03:30:44.222Z,1005.51
2018-07-05T03:31:44.234Z,1005.54
2018-07-05T03:32:44.202Z,1005.58
2018-07-05T03:33:44.194Z,1005.57
2018-07-05T03:34:44.180Z,1005.61
2018-07-05T03:35:44.169Z,1005.62
2018-07-05T03:36:44.259Z,1005.69
2018-07-05T03:37:44.169Z,1005.68
2018-07-05T03:38:44.210Z,1005.68
2018-07-05T03:39:44.127Z,1005.69
2018-07-05T03:40:44.115Z,1005.69
2018-07-05T03:41:44.100Z,1005.66
2018-07-05T03:42:44.191Z,1005.63
2018-07-05T03:43:44.153Z,1005.66
2018-07-05T03:44:44.071Z,1005.61
2018-07-05T03:45:44.061Z,1005.64
2018-07-05T03:46:44.051Z,1005.64
2018-07-05T03:47:44.037Z,1005.71
2018-07-05T03:48:44.028Z,1005.67
2018-07-05T03:49:44.038Z,1005.71
2018-07-05T03:50:44.039Z,1005.70
2018-07-05T03:51:43.997Z,1005.68
2018-07-05T03:52:43.982Z,1005.65
2018-07-05T03:53:43.972Z,1005.70
2018-07-05T03:54:43.970Z,1005.66
2018-07-05T03:55:43.988Z,1005.69
2018-07-05T03:56:43.949Z,1005.68
2018-07-05T03:57:43.964Z,1005.71
2018-07-05T03:58:43.920Z,1005.66
2018-07-05T03:59:43.911Z,1005.69
2018-07-05T04:00:43.918Z,1005.69
2018-07-05T04:01:43.889Z,1005.66
2018-07-05T04:02:44.015Z,1005.66
2018-07-05T04:03:43.865Z,1005.70
2018-07-05T04:04:43.891Z,1005.73
2018-07-05T04:05:43.846Z,1005.74
2018-07-05T04:06:43.878Z,1005.73
2018-07-05T04:07:48.621Z,1005.72
2018-07-05T04:08:43.811Z,1005.72
2018-07-05T04:09:43.800Z,1005.71
2018-07-05T04:10:43.794Z,1005.67
2018-07-05T04:11:43.820Z,1005.73
2018-07-05T04:12:43.804Z,1005.71
2018-07-05T04:13:43.757Z,1005.68
2018-07-05T04:14:43.749Z,1005.73
2018-07-05T04:15:43.795Z,1005.73
2018-07-05T04:16:43.727Z,1005.75
2018-07-05T04:17:43.737Z,1005.78
2018-07-05T04:18:43.778Z,1005.75
2018-07-05T04:19:43.696Z,1005.68
2018-07-05T04:20:43.685Z,1005.71
2018-07-05T04:21:43.686Z,1005.77
2018-07-05T04:22:43.662Z,1005.72
2018-07-05T04:23:43.707Z,1005.73
2018-07-05T04:24:43.661Z,1005.72
2018-07-05T04:25:43.741Z,1005.74
2018-07-05T04:26:43.620Z,1005.76
2018-07-05T04:27:43.609Z,1005.78
2018-07-05T04:28:43.599Z,1005.78
2018-07-05T04:29:43.590Z,1005.75
2018-07-05T04:30:43.603Z,1005.79
2018-07-05T04:31:43.567Z,1005.84
2018-07-05T04:32:43.603Z,1005.83
2018-07-05T04:33:43.548Z,1005.80
2018-07-05T04:34:43.535Z,1005.84
2018-07-05T04:35:43.527Z,1005.85
2018-07-05T04:36:43.536Z,1005.86
2018-07-05T04:37:43.507Z,1005.81
2018-07-05T04:38:43.496Z,1005.79
2018-07-05T04:39:43.538Z,1005.76
2018-07-05T04:40:43.480Z,1005.77
2018-07-05T04:41:43.463Z,1005.80
2018-07-05T04:42:43.475Z,1005.80
2018-07-05T04:43:43.448Z,1005.73
2018-07-05T04:44:43.436Z,1005.76
2018-07-05T04:45:43.427Z,1005.76
2018-07-05T04:46:43.458Z,1005.72
2018-07-05T04:47:43.423Z,1005.73
2018-07-05T04:48:43.392Z,1005.74
2018-07-05T04:49:43.387Z,1005.75
2018-07-05T04:50:43.375Z,1005.76
2018-07-05T04:51:43.368Z,1005.73
2018-07-05T04:52:43.354Z,1005.76
2018-07-05T04:53:43.398Z,1005.75
2018-07-05T04:54:43.335Z,1005.76
2018-07-05T04:55:43.322Z,1005.78
2018-07-05T04:56:43.314Z,1005.80
2018-07-05T04:57:43.301Z,1005.80
2018-07-05T04:58:43.296Z,1005.81
2018-07-05T04:59:43.299Z,1005.82
2018-07-05T05:00:43.304Z,1005.77
2018-07-05T05:01:43.261Z,1005.80
2018-07-05T05:02:43.275Z,1005.79
2018-07-05T05:03:43.320Z,1005.74
2018-07-05T05:04:43.229Z,1005.75
2018-07-05T05:05:43.240Z,1005.73
2018-07-05T05:06:43.211Z,1005.76
2018-07-05T05:07:43.241Z,1005.68
2018-07-05T05:08:48.020Z,1005.68
2018-07-05T05:09:43.181Z,1005.74
2018-07-05T05:10:43.168Z,1005.74
2018-07-05T05:11:43.176Z,1005.77
2018-07-05T05:12:43.145Z,1005.80
2018-07-05T05:13:43.136Z,1005.83
2018-07-05T05:14:43.162Z,1005.82
2018-07-05T05:15:43.118Z,1005.86
2018-07-05T05:16:43.112Z,1005.86
2018-07-05T05:17:43.114Z,1005.88
2018-07-05T05:18:43.085Z,1005.88
2018-07-05T05:19:43.077Z,1005.88
2018-07-05T05:20:43.064Z,1005.88
2018-07-05T05:21:43.091Z,1005.88
2018-07-05T05:22:43.042Z,1005.84
2018-07-05T05:23:43.069Z,1005.82
2018-07-05T05:24:43.023Z,1005.81
2018-07-05T05:25:43.014Z,1005.82
2018-07-05T05:26:43.004Z,1005.83
2018-07-05T05:27:42.992Z,1005.83
2018-07-05T05:28:43.021Z,1005.81
2018-07-05T05:29:42.989Z,1005.85
2018-07-05T05:30:42.958Z,1005.83
2018-07-05T05:31:42.950Z,1005.90
2018-07-05T05:32:42.934Z,1005.89
2018-07-05T05:33:42.927Z,1005.91
2018-07-05T05:34:42.917Z,1005.93
2018-07-05T05:35:42.975Z,1005.93
2018-07-05T05:36:42.894Z,1005.96
2018-07-05T05:37:42.884Z,1005.97
2018-07-05T05:38:42.877Z,1005.94
2018-07-05T05:39:42.862Z,1005.95
2018-07-05T05:40:42.885Z,1005.91
2018-07-05T05:41:42.842Z,1005.87
2018-07-05T05:42:42.869Z,1005.89
2018-07-05T05:43:42.823Z,1005.87
2018-07-05T05:44:42.810Z,1005.89
2018-07-05T05:45:42.795Z,1005.92
2018-07-05T05:46:42.840Z,1005.88
2018-07-05T05:47:42.839Z,1005.94
2018-07-05T05:48:42.764Z,1005.93
2018-07-05T05:49:42.789Z,1005.97
2018-07-05T05:50:42.739Z,1006.00
2018-07-05T05:51:42.732Z,1006.06
2018-07-05T05:52:42.760Z,1006.06
2018-07-05T05:53:42.706Z,1006.08
2018-07-05T05:54:42.696Z,1006.08
2018-07-05T05:55:42.718Z,1006.07
2018-07-05T05:56:42.715Z,1006.12
2018-07-05T05:57:42.670Z,1006.09
2018-07-05T05:58:42.686Z,1006.10
2018-07-05T05:59:42.643Z,1006.10
2018-07-05T06:00:42.642Z,1006.08
2018-07-05T06:01:42.630Z,1006.08
2018-07-05T06:02:42.611Z,1006.02
2018-07-05T06:03:42.639Z,1005.99
2018-07-05T06:04:42.665Z,1006.01
2018-07-05T06:05:42.578Z,1006.02
2018-07-05T06:06:42.563Z,1006.03
2018-07-05T06:07:42.552Z,1006.02
2018-07-05T06:08:42.540Z,1006.00
2018-07-05T06:09:47.355Z,1006.04
2018-07-05T06:10:42.602Z,1006.02
2018-07-05T06:11:42.509Z,1006.00
2018-07-05T06:12:42.498Z,1006.00
2018-07-05T06:13:42.489Z,1006.06
2018-07-05T06:14:42.479Z,1006.03
2018-07-05T06:15:42.467Z,1006.03
2018-07-05T06:16:42.495Z,1005.98
2018-07-05T06:17:42.494Z,1005.96
2018-07-05T06:18:42.519Z,1005.94
2018-07-05T06:19:42.420Z,1005.89
2018-07-05T06:20:42.412Z,1005.87
2018-07-05T06:21:42.399Z,1005.92
2018-07-05T06:22:42.430Z,1005.90
2018-07-05T06:23:42.377Z,1005.89
2018-07-05T06:24:42.590Z,1005.90
2018-07-05T06:25:42.392Z,1005.91
2018-07-05T06:26:42.342Z,1005.89
2018-07-05T06:27:42.335Z,1005.88
2018-07-05T06:28:42.358Z,1005.87
2018-07-05T06:29:42.313Z,1005.84
2018-07-05T06:30:42.301Z,1005.88
2018-07-05T06:31:42.323Z,1005.92
2018-07-05T06:32:42.277Z,1005.95
2018-07-05T06:33:42.266Z,1005.90
2018-07-05T06:34:42.290Z,1005.95
2018-07-05T06:35:42.245Z,1005.97
2018-07-05T06:36:42.237Z,1005.96
2018-07-05T06:37:42.222Z,1005.95
2018-07-05T06:38:42.256Z,1005.94
2018-07-05T06:39:42.205Z,1005.95
2018-07-05T06:40:42.226Z,1005.92
2018-07-05T06:41:42.178Z,1005.94
2018-07-05T06:42:42.170Z,1005.94
2018-07-05T06:43:42.159Z,1005.92
2018-07-05T06:44:42.157Z,1005.93
2018-07-05T06:45:42.218Z,1005.96
2018-07-05T06:46:42.159Z,1005.99
2018-07-05T06:47:42.118Z,1005.96
2018-07-05T06:48:42.106Z,1006.00
2018-07-05T06:49:42.147Z,1005.98
2018-07-05T06:50:42.085Z,1006.00
2018-07-05T06:51:42.078Z,1006.01
2018-07-05T06:52:42.112Z,1006.00
2018-07-05T06:53:42.056Z,1005.98
2018-07-05T06:54:42.041Z,1005.97
2018-07-05T06:55:42.030Z,1006.00
2018-07-05T06:56:42.021Z,1006.05
2018-07-05T06:57:42.010Z,1006.02
2018-07-05T06:58:42.043Z,1006.06
2018-07-05T06:59:42.024Z,1006.09
2018-07-05T07:00:41.976Z,1006.10
2018-07-05T07:01:41.985Z,1006.10
2018-07-05T07:02:41.954Z,1006.07
2018-07-05T07:03:41.959Z,1006.00
2018-07-05T07:04:41.972Z,1006.03
2018-07-05T07:05:41.979Z,1006.07
2018-07-05T07:06:41.960Z,1006.03
2018-07-05T07:07:41.900Z,1006.09
2018-07-05T07:08:41.892Z,1006.06
2018-07-05T07:09:41.878Z,1006.09
2018-07-05T07:10:46.721Z,1006.06
2018-07-05T07:11:41.857Z,1006.06
2018-07-05T07:12:41.848Z,1006.05
2018-07-05T07:13:41.879Z,1006.09
2018-07-05T07:14:41.834Z,1006.10
2018-07-05T07:15:41.814Z,1006.14
2018-07-05T07:16:41.917Z,1006.11
2018-07-05T07:17:41.854Z,1006.12
2018-07-05T07:18:41.833Z,1006.12
2018-07-05T07:19:41.809Z,1006.13
2018-07-05T07:20:41.971Z,1006.16
2018-07-05T07:21:41.754Z,1006.19
2018-07-05T07:22:41.767Z,1006.21
2018-07-05T07:23:41.733Z,1006.17
2018-07-05T07:24:41.723Z,1006.16
2018-07-05T07:25:41.710Z,1006.16
2018-07-05T07:26:41.701Z,1006.19
2018-07-05T07:27:41.735Z,1006.16
2018-07-05T07:28:41.699Z,1006.13
2018-07-05T07:29:41.671Z,1006.16
2018-07-05T07:30:41.662Z,1006.18
2018-07-05T07:31:41.689Z,1006.19
2018-07-05T07:32:41.639Z,1006.16
2018-07-05T07:33:41.641Z,1006.16
2018-07-05T07:34:41.657Z,1006.18
2018-07-05T07:35:41.601Z,1006.17
2018-07-05T07:36:41.597Z,1006.18
2018-07-05T07:37:41.637Z,1006.15
2018-07-05T07:38:41.581Z,1006.18
2018-07-05T07:39:41.573Z,1006.18
2018-07-05T07:40:41.577Z,1006.18
2018-07-05T07:41:41.573Z,1006.20
2018-07-05T07:42:41.534Z,1006.27
2018-07-05T07:43:41.523Z,1006.23
2018-07-05T07:44:41.533Z,1006.18
2018-07-05T07:45:41.531Z,1006.20
2018-07-05T07:46:41.530Z,1006.21
2018-07-05T07:47:41.484Z,1006.22
2018-07-05T07:48:41.497Z,1006.22
2018-07-05T07:49:41.460Z,1006.24
2018-07-05T07:50:41.452Z,1006.26
2018-07-05T07:51:41.451Z,1006.26
2018-07-05T07:52:41.446Z,1006.22
2018-07-05T07:53:41.419Z,1006.29
2018-07-05T07:54:41.408Z,1006.24
2018-07-05T07:55:41.431Z,1006.30
2018-07-05T07:56:41.412Z,1006.29
2018-07-05T07:57:41.376Z,1006.25
2018-07-05T07:58:41.429Z,1006.30
2018-07-05T07:59:41.358Z,1006.32
2018-07-05T08:00:41.342Z,1006.31
2018-07-05T08:01:41.334Z,1006.29
2018-07-05T08:02:41.346Z,1006.31
2018-07-05T08:03:41.345Z,1006.28
2018-07-05T08:04:41.301Z,1006.30
2018-07-05T08:05:41.325Z,1006.23
2018-07-05T08:06:41.338Z,1006.27
2018-07-05T08:07:41.269Z,1006.28
2018-07-05T08:08:41.261Z,1006.22
2018-07-05T08:09:41.296Z,1006.21
2018-07-05T08:10:41.278Z,1006.23
2018-07-05T08:11:46.049Z,1006.20
2018-07-05T08:12:41.231Z,1006.23
2018-07-05T08:13:41.206Z,1006.17
2018-07-05T08:14:41.192Z,1006.19
2018-07-05T08:15:41.823Z,1006.19
2018-07-05T08:16:41.255Z,1006.18
2018-07-05T08:17:41.163Z,1006.19
2018-07-05T08:18:41.155Z,1006.21
2018-07-05T08:19:41.166Z,1006.22
2018-07-05T08:20:41.136Z,1006.19
2018-07-05T08:21:41.161Z,1006.20
2018-07-05T08:22:41.115Z,1006.18
2018-07-05T08:23:41.120Z,1006.16
2018-07-05T08:24:41.089Z,1006.14
2018-07-05T08:25:41.083Z,1006.13
2018-07-05T08:26:41.089Z,1006.15
2018-07-05T08:27:41.094Z,1006.17
2018-07-05T08:28:41.053Z,1006.13
2018-07-05T08:29:41.041Z,1006.13
2018-07-05T08:30:41.054Z,1006.12
2018-07-05T08:31:41.018Z,1006.13
2018-07-05T08:32:41.022Z,1006.11
2018-07-05T08:33:41.040Z,1006.09
2018-07-05T08:34:40.983Z,1006.11
2018-07-05T08:35:40.973Z,1006.10
2018-07-05T08:36:40.963Z,1006.09
2018-07-05T08:37:40.991Z,1006.09
2018-07-05T08:38:40.941Z,1006.10
2018-07-05T08:39:40.949Z,1006.09
2018-07-05T08:40:40.945Z,1006.09
2018-07-05T08:41:40.909Z,1006.07
2018-07-05T08:42:40.905Z,1006.08
2018-07-05T08:43:40.891Z,1006.16
2018-07-05T08:44:40.931Z,1006.13
2018-07-05T08:45:40.870Z,1006.13
2018-07-05T08:46:40.860Z,1006.10
2018-07-05T08:47:40.869Z,1006.13
2018-07-05T08:48:40.851Z,1006.12
2018-07-05T08:49:40.828Z,1006.15
2018-07-05T08:50:40.835Z,1006.08
2018-07-05T08:51:40.836Z,1006.09
2018-07-05T08:52:40.795Z,1006.05
2018-07-05T08:53:40.829Z,1006.05
2018-07-05T08:54:40.797Z,1006.07
2018-07-05T08:55:41.095Z,1006.06
2018-07-05T08:56:40.797Z,1006.04
2018-07-05T08:57:40.768Z,1006.05
2018-07-05T08:58:40.760Z,1006.04
2018-07-05T08:59:41.043Z,1006.00
2018-07-05T09:00:40.711Z,1005.99
2018-07-05T09:01:40.822Z,1005.98
2018-07-05T09:02:40.724Z,1006.01
2018-07-05T09:03:40.682Z,1006.02
2018-07-05T09:04:40.669Z,1006.03
2018-07-05T09:05:40.684Z,1006.02
2018-07-05T09:06:40.649Z,1006.02
2018-07-05T09:07:40.687Z,1006.04
2018-07-05T09:08:40.684Z,1006.02
2018-07-05T09:09:40.619Z,1006.01
2018-07-05T09:10:40.606Z,1006.07
2018-07-05T09:11:40.597Z,1005.99
2018-07-05T09:12:45.422Z,1006.00
2018-07-05T09:13:40.576Z,1005.98
2018-07-05T09:14:40.654Z,1005.99
2018-07-05T09:15:40.572Z,1006.02
2018-07-05T09:16:40.551Z,1005.96
2018-07-05T09:17:40.710Z,1005.97
2018-07-05T09:18:40.524Z,1006.02
2018-07-05T09:19:40.541Z,1005.99
2018-07-05T09:20:40.539Z,1005.96
2018-07-05T09:21:40.501Z,1005.93
2018-07-05T09:22:40.498Z,1005.96
2018-07-05T09:23:40.474Z,1005.92
2018-07-05T09:24:40.459Z,1005.87
2018-07-05T09:25:40.544Z,1005.89
2018-07-05T09:26:40.515Z,1005.97
2018-07-05T09:27:40.452Z,1005.88
2018-07-05T09:28:40.422Z,1005.84
2018-07-05T09:29:40.422Z,1005.89
2018-07-05T09:30:40.719Z,1005.88
2018-07-05T09:31:40.389Z,1005.85
2018-07-05T09:32:40.733Z,1005.84
2018-07-05T09:33:40.393Z,1005.86
2018-07-05T09:34:40.792Z,1005.80
2018-07-05T09:35:40.355Z,1005.83
2018-07-05T09:36:40.371Z,1005.81
2018-07-05T09:37:40.430Z,1005.87
2018-07-05T09:38:40.343Z,1005.86
2018-07-05T09:39:40.310Z,1005.86
2018-07-05T09:40:40.320Z,1005.91
2018-07-05T09:41:40.293Z,1005.90
2018-07-05T09:42:40.280Z,1005.92
2018-07-05T09:43:40.292Z,1005.93
2018-07-05T09:44:40.277Z,1005.92
2018-07-05T09:45:40.251Z,1005.92
2018-07-05T09:46:40.240Z,1005.88
2018-07-05T09:47:40.254Z,1005.93
2018-07-05T09:48:40.217Z,1005.92
2018-07-05T09:49:40.329Z,1005.93
2018-07-05T09:50:40.213Z,1005.93
2018-07-05T09:51:40.190Z,1005.93
2018-07-05T09:52:40.220Z,1005.92
2018-07-05T09:53:40.168Z,1005.94
2018-07-05T09:54:40.186Z,1005.98
2018-07-05T09:55:40.175Z,1005.96
2018-07-05T09:56:40.139Z,1005.93
2018-07-05T09:57:40.153Z,1005.94
2018-07-05T09:58:40.121Z,1005.97
2018-07-05T09:59:40.111Z,1005.97
2018-07-05T10:00:40.100Z,1006.01
2018-07-05T10:01:40.182Z,1006.01
2018-07-05T10:02:40.077Z,1005.98
2018-07-05T10:03:40.390Z,1006.00
2018-07-05T10:04:40.075Z,1006.00
2018-07-05T10:05:40.058Z,1006.01
2018-07-05T10:06:40.041Z,1005.95
2018-07-05T10:07:40.165Z,1005.99
2018-07-05T10:08:40.120Z,1005.93
2018-07-05T10:09:40.009Z,1005.95
2018-07-05T10:10:39.998Z,1005.94
2018-07-05T10:11:40.091Z,1005.93
2018-07-05T10:12:39.973Z,1005.95
2018-07-05T10:13:45.317Z,1005.95
2018-07-05T10:14:41.049Z,1005.96
2018-07-05T10:15:39.938Z,1005.94
2018-07-05T10:16:39.929Z,1005.95
2018-07-05T10:17:39.915Z,1005.94
2018-07-05T10:18:39.946Z,1005.99
2018-07-05T10:19:39.897Z,1006.00
2018-07-05T10:20:39.884Z,1006.02
2018-07-05T10:21:39.896Z,1005.97
2018-07-05T10:22:39.865Z,1006.02
2018-07-05T10:23:39.852Z,1006.05
2018-07-05T10:24:39.859Z,1006.01
2018-07-05T10:25:39.847Z,1005.97
2018-07-05T10:26:39.926Z,1005.98
2018-07-05T10:27:39.813Z,1006.01
2018-07-05T10:28:39.822Z,1005.98
2018-07-05T10:29:39.796Z,1005.98
2018-07-05T10:30:39.818Z,1005.94
2018-07-05T10:31:39.767Z,1005.98
2018-07-05T10:32:39.770Z,1005.94
2018-07-05T10:33:39.752Z,1005.94
2018-07-05T10:34:39.739Z,1005.97
2018-07-05T10:35:39.753Z,1005.97
2018-07-05T10:36:39.739Z,1005.94
2018-07-05T10:37:39.710Z,1005.92
2018-07-05T10:38:39.698Z,1005.91
2018-07-05T10:39:39.733Z,1005.93
2018-07-05T10:40:39.675Z,1005.91
2018-07-05T10:41:39.665Z,1005.92
2018-07-05T10:42:39.710Z,1005.90
2018-07-05T10:43:39.643Z,1005.91
2018-07-05T10:44:39.633Z,1005.93
2018-07-05T10:45:39.623Z,1005.90
2018-07-05T10:46:39.625Z,1005.90
2018-07-05T10:47:39.604Z,1005.90
2018-07-05T10:48:39.629Z,1005.94
2018-07-05T10:49:39.606Z,1005.94
2018-07-05T10:50:39.572Z,1005.93
2018-07-05T10:51:39.560Z,1005.99
2018-07-05T10:52:39.552Z,1006.02
2018-07-05T10:53:39.555Z,1006.01
2018-07-05T10:54:39.712Z,1005.97
2018-07-05T10:55:39.524Z,1006.00
2018-07-05T10:56:39.534Z,1005.97
2018-07-05T10:57:39.497Z,1006.01
2018-07-05T10:58:39.488Z,1005.99
2018-07-05T10:59:39.483Z,1006.04
2018-07-05T11:00:39.536Z,1006.00
2018-07-05T11:01:39.464Z,1006.03
2018-07-05T11:02:39.454Z,1006.02
2018-07-05T11:03:39.461Z,1006.01
2018-07-05T11:04:39.433Z,1006.00
2018-07-05T11:05:39.418Z,1006.00
2018-07-05T11:06:39.447Z,1006.00
2018-07-05T11:07:39.423Z,1006.03
2018-07-05T11:08:39.387Z,1006.00
2018-07-05T11:09:39.419Z,1006.02
2018-07-05T11:10:39.390Z,1006.03
2018-07-05T11:11:39.358Z,1006.01
2018-07-05T11:12:39.386Z,1006.01
2018-07-05T11:13:39.338Z,1006.00
2018-07-05T11:14:44.234Z,1005.99
2018-07-05T11:15:39.318Z,1006.00
2018-07-05T11:16:39.365Z,1006.00
2018-07-05T11:17:39.316Z,1005.99
2018-07-05T11:18:39.325Z,1006.02
2018-07-05T11:19:39.277Z,1006.02
2018-07-05T11:20:39.266Z,1006.04
2018-07-05T11:21:39.265Z,1006.06
2018-07-05T11:22:39.246Z,1006.03
2018-07-05T11:23:39.234Z,1006.07
2018-07-05T11:24:39.279Z,1006.02
2018-07-05T11:25:39.214Z,1006.06
2018-07-05T11:26:39.206Z,1006.02
2018-07-05T11:27:39.197Z,1006.00
2018-07-05T11:28:39.196Z,1005.95
2018-07-05T11:29:39.184Z,1005.96
2018-07-05T11:30:39.198Z,1005.89
2018-07-05T11:31:39.177Z,1005.89
2018-07-05T11:32:39.142Z,1005.89
2018-07-05T11:33:39.134Z,1005.86
2018-07-05T11:34:39.119Z,1005.86
2018-07-05T11:35:39.125Z,1005.87
2018-07-05T11:36:39.141Z,1005.86
2018-07-05T11:37:39.088Z,1005.84
2018-07-05T11:38:39.101Z,1005.80
2018-07-05T11:39:39.068Z,1005.85
2018-07-05T11:40:39.060Z,1005.79
2018-07-05T11:41:39.049Z,1005.79
2018-07-05T11:42:39.101Z,1005.75
2018-07-05T11:43:39.029Z,1005.73
2018-07-05T11:44:39.020Z,1005.75
2018-07-05T11:45:39.032Z,1005.77
2018-07-05T11:46:39.035Z,1005.76
2018-07-05T11:47:38.991Z,1005.70
2018-07-05T11:48:39.012Z,1005.75
2018-07-05T11:49:38.983Z,1005.71
2018-07-05T11:50:38.958Z,1005.69
2018-07-05T11:51:38.948Z,1005.74
2018-07-05T11:52:38.964Z,1005.73
2018-07-05T11:53:38.932Z,1005.72
2018-07-05T11:54:38.957Z,1005.73
2018-07-05T11:55:38.908Z,1005.71
2018-07-05T11:56:38.907Z,1005.71
2018-07-05T11:57:38.891Z,1005.66
2018-07-05T11:58:38.887Z,1005.67
2018-07-05T11:59:38.894Z,1005.63
2018-07-05T12:00:38.892Z,1005.69
2018-07-05T12:01:38.846Z,1005.70
2018-07-05T12:02:38.837Z,1005.60
2018-07-05T12:03:38.842Z,1005.63
2018-07-05T12:04:38.817Z,1005.66
2018-07-05T12:05:38.810Z,1005.63